Flight Track Log - Related Links

Times and Time Zones

All times are in EDT time to prevent confusion due to time zone crossing. See the N273SK flight status page for this flight to view local times or setup timezone preferences in your user account.


Time Position Orientation Groundspeed Altitude Reporting Facility
EDT Latitude Longitude Course Direction KTS MPH feet Rate Location/Type
Thu 03:41:41 PM 42.9167 -78.7667 216° Southwest 155 178 2,600  Level Buffalo TRACON
Thu 03:42:35 PM 42.8833 -78.8167 228° Southwest 192 221 4,800 2,377 Climbing Buffalo TRACON
Thu 03:43:27 PM 42.8519 -78.8669 230° Southwest 220 253 6,800 2,571 Climbing Cleveland Center
Thu 03:44:00 PM 42.8376 -79.1749 236° Southwest  Level FlightAware Approximate
Thu 03:44:27 PM 42.8467 -78.9492 270° West 220 253 9,600  Level Cleveland Center
Thu 03:45:00 PM 42.8202 -79.2895 246° West  Level FlightAware Approximate
Thu 03:45:00 PM 42.8294 -79.0508 270° West  Level Estimated
Thu 03:46:00 PM 42.8059 -79.4077 262° West  Level FlightAware Approximate
Thu 03:46:27 PM 42.8556 -79.1389 274° West 247 284 13,000  Level Cleveland Center
Thu 03:47:27 PM 42.8422 -79.2467 260° West 273 314 14,000 500 Climbing Cleveland Center
Thu 03:48:27 PM 42.8289 -79.3631 261° West 300 345 14,000  Level Cleveland Center
Thu 03:49:27 PM 42.8072 -79.4881 257° West 320 368 14,000  Level Cleveland Center
Thu 03:50:27 PM 42.7897 -79.6128 259° West 335 386 14,000 350 Level Cleveland Center
Thu 03:51:27 PM 42.7697 -79.7347 257° West 340 391 14,700 950 Climbing Cleveland Center
Thu 03:52:27 PM 42.7539 -79.8622 260° West 340 391 15,900 1,150 Climbing Cleveland Center
Thu 03:53:27 PM 42.7464 -79.9811 265° West 335 386 17,000 1,050 Climbing Cleveland Center
Thu 03:54:27 PM 42.6883 -80.0494 221° Southwest 270 311 18,000 1,100 Climbing Cleveland Center
Thu 03:55:27 PM 42.6031 -80.0783 194° South 277 319 19,200 1,000 Climbing Cleveland Center
Thu 03:56:27 PM 42.5489 -80.1406 220° Southwest 261 300 20,000 400 Climbing Cleveland Center
Thu 03:57:27 PM 42.5764 -80.2644 287° West 241 277 20,000  Level Cleveland Center
Thu 03:58:27 PM 42.6017 -80.3858 286° West 295 339 20,000  Level Cleveland Center
Thu 03:59:27 PM 42.6289 -80.5125 286° West 335 386 20,000  Level Cleveland Center
Thu 04:00:27 PM 42.6539 -80.6397 285° West 345 397 20,000  Level Cleveland Center
Thu 04:01:27 PM 42.6811 -80.7667 286° West 353 406 20,000  Level Cleveland Center
Thu 04:02:27 PM 42.7017 -80.8911 283° West 353 406 20,000  Level Cleveland Center
Thu 04:03:27 PM 42.6906 -81.0239 264° West 347 399 20,000  Level Cleveland Center
Thu 04:04:27 PM 42.6756 -81.1481 261° West 347 399 20,000  Level Cleveland Center
Thu 04:05:27 PM 42.6622 -81.2806 262° West 352 405 20,000  Level Cleveland Center
Thu 04:06:27 PM 42.6469 -81.3961 260° West 352 405 20,000  Level Cleveland Center
Thu 04:07:27 PM 42.6314 -81.5228 261° West 352 405 20,000 -200 Level Cleveland Center
Thu 04:08:27 PM 42.6178 -81.6553 262° West 352 405 19,600 -800 Descending Cleveland Center
Thu 04:09:27 PM 42.6019 -81.7764 260° West 345 397 18,400 -1,200 Descending Cleveland Center
Thu 04:10:27 PM 42.5861 -81.9000 260° West 345 397 17,200 -1,450 Descending Cleveland Center
Thu 04:11:27 PM 42.5722 -82.0211 261° West 333 383 15,500 -1,650 Descending Cleveland Center
Thu 04:12:27 PM 42.5581 -82.1419 261° West 333 383 13,900 -1,450 Descending Cleveland Center
Thu 04:13:27 PM 42.5439 -82.2600 261° West 333 383 12,600 -1,086 Descending Cleveland Center
Thu 04:14:12 PM 42.5319 -82.3611 261° West 314 361 12,000 -600 Descending Cleveland Center
Thu 04:14:27 PM 42.5297 -82.3750 258° West 333 383 12,000  Level Cleveland Center
Thu 04:14:56 PM 42.5222 -82.4481 262° West 313 360 12,000  Level Cleveland Center
Thu 04:15:27 PM 42.5131 -82.4931 255° West 328 377 12,000  Level Cleveland Center
Thu 04:16:03 PM 42.4994 -82.5686 256° West 308 354 12,000 -100 Level Cleveland Center
Thu 04:16:27 PM 42.4883 -82.6019 246° West 315 362 11,900 -871 Descending Cleveland Center
Thu 04:17:05 PM 42.4664 -82.6689 246° West 248 285 11,100 -1,300 Descending Cleveland Center
Thu 04:17:27 PM 42.4578 -82.6856 235° Southwest 286 329 10,600 -2,073 Descending Cleveland Center
Thu 04:18:00 PM 42.4400 -82.7439 248° West 244 281 9,200 -2,000 Descending Cleveland Center
Thu 04:18:27 PM 42.4292 -82.7661 237° Southwest 260 299 8,600 -1,791 Descending Cleveland Center
Thu 04:19:07 PM 42.4092 -82.8300 247° West 237 273 7,200 -1,600 Descending Cleveland Center
Thu 04:19:27 PM 42.4003 -82.8467 234° Southwest 246 283 7,000 -194 Descending Cleveland Center
Thu 04:20:09 PM 42.4033 -82.9114 274° West 229 264 7,000  Level Cleveland Center
Thu 04:20:27 PM 42.4072 -82.9256 290° West 216 249 7,000 -885 Level Cleveland Center
Thu 04:21:10 PM 42.4436 -82.9775 314° West 225 259 6,100 -1,000 Descending Cleveland Center
Thu 04:21:27 PM 42.4497 -82.9864 313° West 203 234 6,000 -98 Descending Cleveland Center
Thu 04:22:11 PM 42.4947 -83.0219 330° Northwest 213 245 6,000  Level Cleveland Center
Thu 04:22:27 PM 42.4986 -83.0333 295° West 198 228 6,000  Level Cleveland Center
Thu 04:23:12 PM 42.5097 -83.0986 283° West 174 200 6,000  Level Cleveland Center
Thu 04:23:27 PM 42.5097 -83.1042 270° West 198 228 6,000  Level Cleveland Center
Thu 04:24:14 PM 42.4775 -83.1450 223° Southwest 177 204 6,000 -222 Level Cleveland Center
Thu 04:25:15 PM 42.4308 -83.1797 209° Southwest 186 214 5,600 -750 Descending Cleveland Center
Thu 04:26:22 PM 42.3800 -83.2169 208° Southwest 185 213 4,400 -1,070 Descending Cleveland Center
Thu 04:27:24 PM 42.3356 -83.2517 210° Southwest 181 208 3,300 -1,065 Descending Cleveland Center

Login

Don't have an account? Register now (free) for customized features, flight alerts, and more!